sensor_id;sensor_type;location;lat;lon;timestamp;P1;durP1;ratioP1;P2;durP2;ratioP2
9106;SDS011;4589;48.690;8.952;2023-05-07T00:00:01;5.73;;;4.77;;
9106;SDS011;4589;48.690;8.952;2023-05-07T00:02:27;5.17;;;3.50;;
9106;SDS011;4589;48.690;8.952;2023-05-07T00:04:54;4.50;;;4.10;;
9106;SDS011;4589;48.690;8.952;2023-05-07T00:07:20;6.43;;;4.53;;
9106;SDS011;4589;48.690;8.952;2023-05-07T00:09:46;5.90;;;4.17;;
9106;SDS011;4589;48.690;8.952;2023-05-07T00:12:12;3.97;;;3.60;;
9106;SDS011;4589;48.690;8.952;2023-05-07T00:14:38;4.77;;;4.37;;
9106;SDS011;4589;48.690;8.952;2023-05-07T00:17:04;5.20;;;4.17;;
9106;SDS011;4589;48.690;8.952;2023-05-07T00:19:30;4.53;;;4.10;;
9106;SDS011;4589;48.690;8.952;2023-05-07T00:21:56;5.40;;;3.70;;
9106;SDS011;4589;48.690;8.952;2023-05-07T00:24:23;3.87;;;3.30;;
9106;SDS011;4589;48.690;8.952;2023-05-07T00:26:49;3.90;;;3.40;;
9106;SDS011;4589;48.690;8.952;2023-05-07T00:29:15;5.70;;;3.70;;
9106;SDS011;4589;48.690;8.952;2023-05-07T00:31:41;3.40;;;3.10;;
9106;SDS011;4589;48.690;8.952;2023-05-07T00:34:07;5.13;;;3.67;;
9106;SDS011;4589;48.690;8.952;2023-05-07T00:36:33;4.90;;;3.80;;
9106;SDS011;4589;48.690;8.952;2023-05-07T00:39:00;4.37;;;3.97;;
9106;SDS011;4589;48.690;8.952;2023-05-07T00:41:28;5.13;;;3.80;;
9106;SDS011;4589;48.690;8.952;2023-05-07T00:43:55;5.33;;;3.43;;
9106;SDS011;4589;48.690;8.952;2023-05-07T00:46:21;4.23;;;3.80;;
9106;SDS011;4589;48.690;8.952;2023-05-07T00:48:48;6.33;;;3.70;;
9106;SDS011;4589;48.690;8.952;2023-05-07T00:51:15;3.20;;;2.90;;
9106;SDS011;4589;48.690;8.952;2023-05-07T00:53:41;5.20;;;3.30;;
9106;SDS011;4589;48.690;8.952;2023-05-07T00:56:07;5.20;;;3.50;;
9106;SDS011;4589;48.690;8.952;2023-05-07T00:58:33;4.43;;;3.70;;
9106;SDS011;4589;48.690;8.952;2023-05-07T01:01:00;7.00;;;3.80;;
9106;SDS011;4589;48.690;8.952;2023-05-07T01:03:26;4.57;;;3.50;;
9106;SDS011;4589;48.690;8.952;2023-05-07T01:05:52;5.83;;;4.43;;
9106;SDS011;4589;48.690;8.952;2023-05-07T01:08:19;5.30;;;4.53;;
9106;SDS011;4589;48.690;8.952;2023-05-07T01:10:47;7.37;;;4.57;;
9106;SDS011;4589;48.690;8.952;2023-05-07T01:13:12;4.57;;;4.17;;
9106;SDS011;4589;48.690;8.952;2023-05-07T01:15:40;4.37;;;3.83;;
9106;SDS011;4589;48.690;8.952;2023-05-07T01:18:06;4.20;;;3.63;;
9106;SDS011;4589;48.690;8.952;2023-05-07T01:20:32;3.90;;;3.50;;
9106;SDS011;4589;48.690;8.952;2023-05-07T01:22:58;5.20;;;3.80;;
9106;SDS011;4589;48.690;8.952;2023-05-07T01:25:25;5.30;;;3.83;;
9106;SDS011;4589;48.690;8.952;2023-05-07T01:27:51;4.33;;;3.80;;
9106;SDS011;4589;48.690;8.952;2023-05-07T01:30:17;3.97;;;3.63;;
9106;SDS011;4589;48.690;8.952;2023-05-07T01:32:52;4.23;;;3.20;;
9106;SDS011;4589;48.690;8.952;2023-05-07T01:35:25;7.23;;;3.67;;
9106;SDS011;4589;48.690;8.952;2023-05-07T01:37:54;3.37;;;3.07;;
9106;SDS011;4589;48.690;8.952;2023-05-07T01:40:20;4.47;;;4.00;;
9106;SDS011;4589;48.690;8.952;2023-05-07T01:42:46;4.40;;;3.50;;
9106;SDS011;4589;48.690;8.952;2023-05-07T01:45:16;5.57;;;3.93;;
9106;SDS011;4589;48.690;8.952;2023-05-07T01:47:42;4.63;;;4.10;;
9106;SDS011;4589;48.690;8.952;2023-05-07T01:50:08;3.87;;;3.50;;
9106;SDS011;4589;48.690;8.952;2023-05-07T01:52:35;5.50;;;3.80;;
9106;SDS011;4589;48.690;8.952;2023-05-07T01:55:02;5.80;;;3.50;;
9106;SDS011;4589;48.690;8.952;2023-05-07T01:57:28;5.83;;;3.63;;
9106;SDS011;4589;48.690;8.952;2023-05-07T01:59:54;5.23;;;4.03;;
9106;SDS011;4589;48.690;8.952;2023-05-07T02:02:20;6.97;;;4.00;;
9106;SDS011;4589;48.690;8.952;2023-05-07T02:04:46;3.53;;;3.23;;
9106;SDS011;4589;48.690;8.952;2023-05-07T02:07:12;4.07;;;3.67;;
9106;SDS011;4589;48.690;8.952;2023-05-07T02:09:38;4.40;;;3.80;;
9106;SDS011;4589;48.690;8.952;2023-05-07T02:12:04;3.50;;;3.13;;
9106;SDS011;4589;48.690;8.952;2023-05-07T02:14:30;4.37;;;3.97;;
9106;SDS011;4589;48.690;8.952;2023-05-07T02:16:56;4.50;;;3.23;;
9106;SDS011;4589;48.690;8.952;2023-05-07T02:19:22;4.30;;;3.40;;
9106;SDS011;4589;48.690;8.952;2023-05-07T02:21:48;5.30;;;4.43;;
9106;SDS011;4589;48.690;8.952;2023-05-07T02:24:14;3.03;;;2.83;;
9106;SDS011;4589;48.690;8.952;2023-05-07T02:26:40;5.83;;;4.00;;
9106;SDS011;4589;48.690;8.952;2023-05-07T02:29:06;3.80;;;2.97;;
9106;SDS011;4589;48.690;8.952;2023-05-07T02:31:32;6.53;;;3.87;;
9106;SDS011;4589;48.690;8.952;2023-05-07T02:34:01;4.83;;;3.77;;
9106;SDS011;4589;48.690;8.952;2023-05-07T02:36:27;4.10;;;3.40;;
9106;SDS011;4589;48.690;8.952;2023-05-07T02:38:53;3.90;;;3.50;;
9106;SDS011;4589;48.690;8.952;2023-05-07T02:41:19;5.07;;;3.73;;
9106;SDS011;4589;48.690;8.952;2023-05-07T02:43:45;4.63;;;3.97;;
9106;SDS011;4589;48.690;8.952;2023-05-07T02:46:11;5.07;;;3.70;;
9106;SDS011;4589;48.690;8.952;2023-05-07T02:48:37;4.50;;;3.90;;
9106;SDS011;4589;48.690;8.952;2023-05-07T02:51:03;4.30;;;3.90;;
9106;SDS011;4589;48.690;8.952;2023-05-07T02:53:30;5.17;;;3.77;;
9106;SDS011;4589;48.690;8.952;2023-05-07T02:55:56;6.23;;;4.10;;
9106;SDS011;4589;48.690;8.952;2023-05-07T02:58:23;4.70;;;4.20;;
9106;SDS011;4589;48.690;8.952;2023-05-07T03:00:49;4.70;;;3.30;;
9106;SDS011;4589;48.690;8.952;2023-05-07T03:03:15;4.73;;;3.90;;
9106;SDS011;4589;48.690;8.952;2023-05-07T03:05:42;4.43;;;3.93;;
9106;SDS011;4589;48.690;8.952;2023-05-07T03:08:07;4.10;;;3.77;;
9106;SDS011;4589;48.690;8.952;2023-05-07T03:10:34;4.43;;;4.03;;
9106;SDS011;4589;48.690;8.952;2023-05-07T03:13:00;6.07;;;4.60;;
9106;SDS011;4589;48.690;8.952;2023-05-07T03:15:26;4.53;;;4.10;;
9106;SDS011;4589;48.690;8.952;2023-05-07T03:17:51;4.90;;;4.17;;
9106;SDS011;4589;48.690;8.952;2023-05-07T03:20:17;4.33;;;3.77;;
9106;SDS011;4589;48.690;8.952;2023-05-07T03:22:43;8.30;;;5.17;;
9106;SDS011;4589;48.690;8.952;2023-05-07T03:25:09;6.37;;;5.07;;
9106;SDS011;4589;48.690;8.952;2023-05-07T03:27:36;7.97;;;4.07;;
9106;SDS011;4589;48.690;8.952;2023-05-07T03:30:02;6.57;;;4.70;;
9106;SDS011;4589;48.690;8.952;2023-05-07T03:32:28;9.60;;;4.63;;
9106;SDS011;4589;48.690;8.952;2023-05-07T03:34:54;4.40;;;4.00;;
9106;SDS011;4589;48.690;8.952;2023-05-07T03:37:20;7.13;;;4.70;;
9106;SDS011;4589;48.690;8.952;2023-05-07T03:39:47;4.73;;;4.10;;
9106;SDS011;4589;48.690;8.952;2023-05-07T03:42:13;5.90;;;4.33;;
9106;SDS011;4589;48.690;8.952;2023-05-07T03:44:39;6.37;;;4.70;;
9106;SDS011;4589;48.690;8.952;2023-05-07T03:47:05;5.43;;;4.93;;
9106;SDS011;4589;48.690;8.952;2023-05-07T03:49:30;4.30;;;4.00;;
9106;SDS011;4589;48.690;8.952;2023-05-07T03:51:56;7.27;;;5.00;;
9106;SDS011;4589;48.690;8.952;2023-05-07T03:54:22;5.17;;;4.10;;
9106;SDS011;4589;48.690;8.952;2023-05-07T03:56:48;6.40;;;4.30;;
9106;SDS011;4589;48.690;8.952;2023-05-07T03:59:14;5.07;;;4.57;;
9106;SDS011;4589;48.690;8.952;2023-05-07T04:01:40;4.63;;;4.20;;
9106;SDS011;4589;48.690;8.952;2023-05-07T04:04:06;6.23;;;4.50;;
9106;SDS011;4589;48.690;8.952;2023-05-07T04:06:32;5.07;;;4.00;;
9106;SDS011;4589;48.690;8.952;2023-05-07T04:08:58;4.63;;;4.10;;
9106;SDS011;4589;48.690;8.952;2023-05-07T04:11:24;6.90;;;5.27;;
9106;SDS011;4589;48.690;8.952;2023-05-07T04:13:50;5.07;;;4.57;;
9106;SDS011;4589;48.690;8.952;2023-05-07T04:16:16;4.70;;;4.07;;
9106;SDS011;4589;48.690;8.952;2023-05-07T04:18:42;7.07;;;4.77;;
9106;SDS011;4589;48.690;8.952;2023-05-07T04:21:15;5.30;;;4.27;;
9106;SDS011;4589;48.690;8.952;2023-05-07T04:23:41;5.70;;;3.87;;
9106;SDS011;4589;48.690;8.952;2023-05-07T04:26:07;8.03;;;4.63;;
9106;SDS011;4589;48.690;8.952;2023-05-07T04:28:33;5.03;;;4.53;;
9106;SDS011;4589;48.690;8.952;2023-05-07T04:31:00;5.47;;;4.40;;
9106;SDS011;4589;48.690;8.952;2023-05-07T04:33:26;8.33;;;4.27;;
9106;SDS011;4589;48.690;8.952;2023-05-07T04:35:52;5.40;;;4.87;;
9106;SDS011;4589;48.690;8.952;2023-05-07T04:38:18;4.83;;;4.07;;
9106;SDS011;4589;48.690;8.952;2023-05-07T04:40:44;5.43;;;4.20;;
9106;SDS011;4589;48.690;8.952;2023-05-07T04:43:11;7.83;;;4.50;;
9106;SDS011;4589;48.690;8.952;2023-05-07T04:45:37;5.90;;;4.90;;
9106;SDS011;4589;48.690;8.952;2023-05-07T04:48:05;7.10;;;4.73;;
9106;SDS011;4589;48.690;8.952;2023-05-07T04:50:31;5.80;;;4.70;;
9106;SDS011;4589;48.690;8.952;2023-05-07T04:52:57;5.30;;;4.80;;
9106;SDS011;4589;48.690;8.952;2023-05-07T04:55:23;5.20;;;4.80;;
9106;SDS011;4589;48.690;8.952;2023-05-07T04:57:49;4.50;;;4.10;;
9106;SDS011;4589;48.690;8.952;2023-05-07T05:00:15;7.93;;;4.70;;
9106;SDS011;4589;48.690;8.952;2023-05-07T05:02:44;4.97;;;4.47;;
9106;SDS011;4589;48.690;8.952;2023-05-07T05:05:10;4.57;;;4.17;;
9106;SDS011;4589;48.690;8.952;2023-05-07T05:07:36;5.30;;;4.80;;
9106;SDS011;4589;48.690;8.952;2023-05-07T05:10:02;6.50;;;5.40;;
9106;SDS011;4589;48.690;8.952;2023-05-07T05:12:29;5.63;;;5.00;;
9106;SDS011;4589;48.690;8.952;2023-05-07T05:14:55;6.10;;;5.07;;
9106;SDS011;4589;48.690;8.952;2023-05-07T05:17:21;6.70;;;5.17;;
9106;SDS011;4589;48.690;8.952;2023-05-07T05:19:47;5.03;;;4.57;;
9106;SDS011;4589;48.690;8.952;2023-05-07T05:22:13;5.50;;;5.00;;
9106;SDS011;4589;48.690;8.952;2023-05-07T05:24:39;4.13;;;3.73;;
9106;SDS011;4589;48.690;8.952;2023-05-07T05:27:05;6.73;;;5.50;;
9106;SDS011;4589;48.690;8.952;2023-05-07T05:29:31;4.10;;;3.73;;
9106;SDS011;4589;48.690;8.952;2023-05-07T05:31:57;4.60;;;3.90;;
9106;SDS011;4589;48.690;8.952;2023-05-07T05:34:22;4.60;;;4.20;;
9106;SDS011;4589;48.690;8.952;2023-05-07T05:36:48;4.20;;;3.80;;
9106;SDS011;4589;48.690;8.952;2023-05-07T05:39:14;5.07;;;3.53;;
9106;SDS011;4589;48.690;8.952;2023-05-07T05:41:40;5.13;;;4.17;;
9106;SDS011;4589;48.690;8.952;2023-05-07T05:44:06;9.37;;;4.57;;
9106;SDS011;4589;48.690;8.952;2023-05-07T05:46:32;5.47;;;4.53;;
9106;SDS011;4589;48.690;8.952;2023-05-07T05:48:58;5.93;;;4.70;;
9106;SDS011;4589;48.690;8.952;2023-05-07T05:51:25;5.37;;;4.87;;
9106;SDS011;4589;48.690;8.952;2023-05-07T05:53:51;4.37;;;3.70;;
9106;SDS011;4589;48.690;8.952;2023-05-07T05:56:17;4.73;;;4.27;;
9106;SDS011;4589;48.690;8.952;2023-05-07T05:58:43;5.53;;;3.50;;
9106;SDS011;4589;48.690;8.952;2023-05-07T06:01:09;4.83;;;3.60;;
9106;SDS011;4589;48.690;8.952;2023-05-07T06:03:36;5.17;;;3.87;;
9106;SDS011;4589;48.690;8.952;2023-05-07T06:06:02;5.13;;;3.63;;
9106;SDS011;4589;48.690;8.952;2023-05-07T06:08:31;3.97;;;3.67;;
9106;SDS011;4589;48.690;8.952;2023-05-07T06:10:57;3.70;;;3.37;;
9106;SDS011;4589;48.690;8.952;2023-05-07T06:13:24;5.07;;;3.57;;
9106;SDS011;4589;48.690;8.952;2023-05-07T06:15:50;3.43;;;3.10;;
9106;SDS011;4589;48.690;8.952;2023-05-07T06:18:16;3.67;;;3.37;;
9106;SDS011;4589;48.690;8.952;2023-05-07T06:20:42;3.40;;;3.10;;
9106;SDS011;4589;48.690;8.952;2023-05-07T06:23:08;4.00;;;3.60;;
9106;SDS011;4589;48.690;8.952;2023-05-07T06:25:34;3.53;;;3.20;;
9106;SDS011;4589;48.690;8.952;2023-05-07T06:28:00;4.83;;;3.50;;
9106;SDS011;4589;48.690;8.952;2023-05-07T06:30:26;4.80;;;3.17;;
9106;SDS011;4589;48.690;8.952;2023-05-07T06:32:52;3.93;;;3.53;;
9106;SDS011;4589;48.690;8.952;2023-05-07T06:35:18;7.60;;;3.50;;
9106;SDS011;4589;48.690;8.952;2023-05-07T06:37:44;4.00;;;3.57;;
9106;SDS011;4589;48.690;8.952;2023-05-07T06:40:10;5.90;;;3.60;;
9106;SDS011;4589;48.690;8.952;2023-05-07T06:42:36;3.90;;;3.10;;
9106;SDS011;4589;48.690;8.952;2023-05-07T06:45:02;4.10;;;3.70;;
9106;SDS011;4589;48.690;8.952;2023-05-07T06:47:28;3.60;;;3.30;;
9106;SDS011;4589;48.690;8.952;2023-05-07T06:49:55;4.00;;;3.50;;
9106;SDS011;4589;48.690;8.952;2023-05-07T06:52:20;3.90;;;3.40;;
9106;SDS011;4589;48.690;8.952;2023-05-07T06:54:46;3.50;;;3.20;;
9106;SDS011;4589;48.690;8.952;2023-05-07T06:57:12;4.40;;;3.73;;
9106;SDS011;4589;48.690;8.952;2023-05-07T06:59:38;3.30;;;3.00;;
9106;SDS011;4589;48.690;8.952;2023-05-07T07:02:04;5.10;;;2.80;;
9106;SDS011;4589;48.690;8.952;2023-05-07T07:04:30;3.17;;;2.87;;
9106;SDS011;4589;48.690;8.952;2023-05-07T07:06:56;3.40;;;3.10;;
9106;SDS011;4589;48.690;8.952;2023-05-07T07:09:22;3.37;;;3.07;;
9106;SDS011;4589;48.690;8.952;2023-05-07T07:11:48;4.57;;;2.77;;
9106;SDS011;4589;48.690;8.952;2023-05-07T07:14:14;3.47;;;3.17;;
9106;SDS011;4589;48.690;8.952;2023-05-07T07:16:40;3.30;;;3.10;;
9106;SDS011;4589;48.690;8.952;2023-05-07T07:19:06;3.20;;;3.00;;
9106;SDS011;4589;48.690;8.952;2023-05-07T07:21:32;3.17;;;2.80;;
9106;SDS011;4589;48.690;8.952;2023-05-07T07:23:58;3.00;;;2.80;;
9106;SDS011;4589;48.690;8.952;2023-05-07T07:26:24;3.03;;;2.83;;
9106;SDS011;4589;48.690;8.952;2023-05-07T07:28:50;2.80;;;2.60;;
9106;SDS011;4589;48.690;8.952;2023-05-07T07:31:16;3.33;;;3.03;;
9106;SDS011;4589;48.690;8.952;2023-05-07T07:33:42;2.60;;;2.40;;
9106;SDS011;4589;48.690;8.952;2023-05-07T07:36:08;3.00;;;2.70;;
9106;SDS011;4589;48.690;8.952;2023-05-07T07:38:34;2.60;;;2.40;;
9106;SDS011;4589;48.690;8.952;2023-05-07T07:41:00;3.00;;;2.80;;
9106;SDS011;4589;48.690;8.952;2023-05-07T07:43:26;3.70;;;2.50;;
9106;SDS011;4589;48.690;8.952;2023-05-07T07:45:52;3.10;;;2.80;;
9106;SDS011;4589;48.690;8.952;2023-05-07T07:48:19;3.73;;;2.57;;
9106;SDS011;4589;48.690;8.952;2023-05-07T07:50:44;5.80;;;2.60;;
9106;SDS011;4589;48.690;8.952;2023-05-07T07:53:10;3.27;;;2.93;;
9106;SDS011;4589;48.690;8.952;2023-05-07T07:55:39;3.10;;;2.90;;
9106;SDS011;4589;48.690;8.952;2023-05-07T07:58:05;3.43;;;3.13;;
9106;SDS011;4589;48.690;8.952;2023-05-07T08:00:31;3.20;;;2.60;;
9106;SDS011;4589;48.690;8.952;2023-05-07T08:02:57;2.70;;;2.50;;
9106;SDS011;4589;48.690;8.952;2023-05-07T08:05:23;2.47;;;2.17;;
9106;SDS011;4589;48.690;8.952;2023-05-07T08:07:49;2.53;;;2.33;;
9106;SDS011;4589;48.690;8.952;2023-05-07T08:10:19;5.03;;;2.80;;
9106;SDS011;4589;48.690;8.952;2023-05-07T08:12:51;2.77;;;2.50;;
9106;SDS011;4589;48.690;8.952;2023-05-07T08:15:17;2.67;;;2.47;;
9106;SDS011;4589;48.690;8.952;2023-05-07T08:17:43;2.43;;;2.23;;
9106;SDS011;4589;48.690;8.952;2023-05-07T08:20:09;2.37;;;2.17;;
9106;SDS011;4589;48.690;8.952;2023-05-07T08:22:35;4.43;;;2.70;;
9106;SDS011;4589;48.690;8.952;2023-05-07T08:25:02;2.40;;;2.20;;
9106;SDS011;4589;48.690;8.952;2023-05-07T08:27:28;2.77;;;2.57;;
9106;SDS011;4589;48.690;8.952;2023-05-07T08:29:54;2.93;;;2.10;;
9106;SDS011;4589;48.690;8.952;2023-05-07T08:32:20;2.00;;;1.90;;
9106;SDS011;4589;48.690;8.952;2023-05-07T08:34:47;3.43;;;2.27;;
9106;SDS011;4589;48.690;8.952;2023-05-07T08:37:13;2.50;;;2.30;;
9106;SDS011;4589;48.690;8.952;2023-05-07T08:39:40;2.10;;;1.90;;
9106;SDS011;4589;48.690;8.952;2023-05-07T08:42:05;2.40;;;2.20;;
9106;SDS011;4589;48.690;8.952;2023-05-07T08:44:34;2.37;;;2.17;;
9106;SDS011;4589;48.690;8.952;2023-05-07T08:47:00;2.57;;;2.23;;
9106;SDS011;4589;48.690;8.952;2023-05-07T08:49:29;3.37;;;2.07;;
9106;SDS011;4589;48.690;8.952;2023-05-07T08:51:55;1.90;;;1.80;;
9106;SDS011;4589;48.690;8.952;2023-05-07T08:54:21;2.37;;;1.80;;
9106;SDS011;4589;48.690;8.952;2023-05-07T08:56:47;2.77;;;2.40;;
9106;SDS011;4589;48.690;8.952;2023-05-07T08:59:14;4.03;;;1.97;;
9106;SDS011;4589;48.690;8.952;2023-05-07T09:01:40;4.13;;;2.20;;
9106;SDS011;4589;48.690;8.952;2023-05-07T09:04:06;2.37;;;2.17;;
9106;SDS011;4589;48.690;8.952;2023-05-07T09:06:32;3.10;;;2.00;;
9106;SDS011;4589;48.690;8.952;2023-05-07T09:08:58;2.63;;;2.30;;
9106;SDS011;4589;48.690;8.952;2023-05-07T09:11:26;3.00;;;2.30;;
9106;SDS011;4589;48.690;8.952;2023-05-07T09:13:55;4.80;;;2.67;;
9106;SDS011;4589;48.690;8.952;2023-05-07T09:16:23;2.60;;;2.40;;
9106;SDS011;4589;48.690;8.952;2023-05-07T09:18:52;1.90;;;1.80;;
9106;SDS011;4589;48.690;8.952;2023-05-07T09:21:19;3.37;;;1.90;;
9106;SDS011;4589;48.690;8.952;2023-05-07T09:23:46;2.80;;;2.07;;
9106;SDS011;4589;48.690;8.952;2023-05-07T09:26:13;3.13;;;2.17;;
9106;SDS011;4589;48.690;8.952;2023-05-07T09:28:42;3.60;;;2.13;;
9106;SDS011;4589;48.690;8.952;2023-05-07T09:31:09;2.40;;;2.13;;
9106;SDS011;4589;48.690;8.952;2023-05-07T09:33:35;3.10;;;2.10;;
9106;SDS011;4589;48.690;8.952;2023-05-07T09:36:04;2.30;;;2.10;;
9106;SDS011;4589;48.690;8.952;2023-05-07T09:38:34;2.67;;;2.47;;
9106;SDS011;4589;48.690;8.952;2023-05-07T09:43:37;9.33;;;2.40;;
9106;SDS011;4589;48.690;8.952;2023-05-07T09:46:09;2.57;;;1.90;;
9106;SDS011;4589;48.690;8.952;2023-05-07T09:48:39;3.10;;;2.03;;
9106;SDS011;4589;48.690;8.952;2023-05-07T09:51:18;2.50;;;2.23;;
9106;SDS011;4589;48.690;8.952;2023-05-07T09:53:47;3.70;;;2.53;;
9106;SDS011;4589;48.690;8.952;2023-05-07T09:56:15;2.67;;;2.00;;
9106;SDS011;4589;48.690;8.952;2023-05-07T09:58:42;3.87;;;2.30;;
9106;SDS011;4589;48.690;8.952;2023-05-07T10:01:10;2.33;;;2.13;;
9106;SDS011;4589;48.690;8.952;2023-05-07T10:03:36;2.73;;;2.30;;
9106;SDS011;4589;48.690;8.952;2023-05-07T10:06:05;3.63;;;2.57;;
9106;SDS011;4589;48.690;8.952;2023-05-07T10:08:32;2.97;;;2.50;;
9106;SDS011;4589;48.690;8.952;2023-05-07T10:10:59;2.83;;;1.90;;
9106;SDS011;4589;48.690;8.952;2023-05-07T10:13:25;2.77;;;2.10;;
9106;SDS011;4589;48.690;8.952;2023-05-07T10:15:51;3.30;;;2.10;;
9106;SDS011;4589;48.690;8.952;2023-05-07T10:18:17;2.50;;;2.30;;
9106;SDS011;4589;48.690;8.952;2023-05-07T10:20:44;4.80;;;2.40;;
9106;SDS011;4589;48.690;8.952;2023-05-07T10:23:12;2.63;;;2.43;;
9106;SDS011;4589;48.690;8.952;2023-05-07T10:25:41;2.53;;;2.33;;
9106;SDS011;4589;48.690;8.952;2023-05-07T10:28:08;2.50;;;2.30;;
9106;SDS011;4589;48.690;8.952;2023-05-07T10:30:46;2.43;;;1.80;;
9106;SDS011;4589;48.690;8.952;2023-05-07T10:33:15;4.20;;;2.40;;
9106;SDS011;4589;48.690;8.952;2023-05-07T10:35:43;2.30;;;2.10;;
9106;SDS011;4589;48.690;8.952;2023-05-07T10:38:11;3.43;;;2.00;;
9106;SDS011;4589;48.690;8.952;2023-05-07T10:40:38;3.13;;;2.40;;
9106;SDS011;4589;48.690;8.952;2023-05-07T10:43:04;2.80;;;2.40;;
9106;SDS011;4589;48.690;8.952;2023-05-07T10:45:31;2.97;;;2.20;;
9106;SDS011;4589;48.690;8.952;2023-05-07T10:48:15;2.00;;;1.80;;
9106;SDS011;4589;48.690;8.952;2023-05-07T10:50:44;2.43;;;2.23;;
9106;SDS011;4589;48.690;8.952;2023-05-07T10:55:42;3.90;;;1.90;;
9106;SDS011;4589;48.690;8.952;2023-05-07T10:58:22;2.73;;;2.20;;
9106;SDS011;4589;48.690;8.952;2023-05-07T11:00:58;2.60;;;2.30;;
9106;SDS011;4589;48.690;8.952;2023-05-07T11:03:25;3.37;;;2.40;;
9106;SDS011;4589;48.690;8.952;2023-05-07T11:11:18;2.73;;;2.53;;
9106;SDS011;4589;48.690;8.952;2023-05-07T11:13:47;2.47;;;2.10;;
9106;SDS011;4589;48.690;8.952;2023-05-07T11:16:18;3.40;;;2.40;;
9106;SDS011;4589;48.690;8.952;2023-05-07T11:18:48;2.77;;;2.57;;
9106;SDS011;4589;48.690;8.952;2023-05-07T11:21:34;3.10;;;2.80;;
9106;SDS011;4589;48.690;8.952;2023-05-07T11:24:07;2.80;;;2.57;;
9106;SDS011;4589;48.690;8.952;2023-05-07T11:26:46;2.27;;;2.07;;
9106;SDS011;4589;48.690;8.952;2023-05-07T11:29:14;3.00;;;2.70;;
9106;SDS011;4589;48.690;8.952;2023-05-07T11:31:41;3.30;;;2.60;;
9106;SDS011;4589;48.690;8.952;2023-05-07T11:34:08;3.73;;;2.70;;
9106;SDS011;4589;48.690;8.952;2023-05-07T11:36:34;2.33;;;2.10;;
9106;SDS011;4589;48.690;8.952;2023-05-07T11:39:05;2.30;;;2.10;;
9106;SDS011;4589;48.690;8.952;2023-05-07T11:41:35;3.20;;;2.63;;
9106;SDS011;4589;48.690;8.952;2023-05-07T11:44:04;3.50;;;3.10;;
9106;SDS011;4589;48.690;8.952;2023-05-07T11:46:30;5.10;;;2.47;;
9106;SDS011;4589;48.690;8.952;2023-05-07T11:48:56;4.60;;;3.00;;
9106;SDS011;4589;48.690;8.952;2023-05-07T11:51:23;5.20;;;3.97;;
9106;SDS011;4589;48.690;8.952;2023-05-07T11:53:50;4.70;;;2.67;;
9106;SDS011;4589;48.690;8.952;2023-05-07T11:56:17;3.50;;;2.53;;
9106;SDS011;4589;48.690;8.952;2023-05-07T11:58:43;2.80;;;2.30;;
9106;SDS011;4589;48.690;8.952;2023-05-07T12:01:11;3.07;;;2.87;;
9106;SDS011;4589;48.690;8.952;2023-05-07T12:03:39;3.37;;;2.60;;
9106;SDS011;4589;48.690;8.952;2023-05-07T12:06:10;6.77;;;3.30;;
9106;SDS011;4589;48.690;8.952;2023-05-07T12:08:37;3.00;;;2.77;;
9106;SDS011;4589;48.690;8.952;2023-05-07T12:11:04;3.53;;;3.23;;
9106;SDS011;4589;48.690;8.952;2023-05-07T12:13:32;4.67;;;3.80;;
9106;SDS011;4589;48.690;8.952;2023-05-07T12:15:58;8.00;;;4.90;;
9106;SDS011;4589;48.690;8.952;2023-05-07T12:18:24;3.03;;;2.73;;
9106;SDS011;4589;48.690;8.952;2023-05-07T12:20:50;3.00;;;2.30;;
9106;SDS011;4589;48.690;8.952;2023-05-07T12:23:16;2.70;;;2.30;;
9106;SDS011;4589;48.690;8.952;2023-05-07T12:25:43;1.87;;;1.73;;
9106;SDS011;4589;48.690;8.952;2023-05-07T12:28:18;4.60;;;2.37;;
9106;SDS011;4589;48.690;8.952;2023-05-07T12:30:45;10.93;;;7.07;;
9106;SDS011;4589;48.690;8.952;2023-05-07T12:33:11;7.13;;;4.80;;
9106;SDS011;4589;48.690;8.952;2023-05-07T12:35:39;5.50;;;3.47;;
9106;SDS011;4589;48.690;8.952;2023-05-07T12:38:15;3.80;;;2.20;;
9106;SDS011;4589;48.690;8.952;2023-05-07T12:40:45;2.77;;;2.33;;
9106;SDS011;4589;48.690;8.952;2023-05-07T12:45:42;4.23;;;2.37;;
9106;SDS011;4589;48.690;8.952;2023-05-07T12:48:11;3.90;;;2.27;;
9106;SDS011;4589;48.690;8.952;2023-05-07T12:50:37;6.47;;;2.33;;
9106;SDS011;4589;48.690;8.952;2023-05-07T12:53:04;2.27;;;1.80;;
9106;SDS011;4589;48.690;8.952;2023-05-07T12:55:31;2.10;;;1.90;;
9106;SDS011;4589;48.690;8.952;2023-05-07T12:57:57;3.40;;;2.50;;
9106;SDS011;4589;48.690;8.952;2023-05-07T13:00:38;3.40;;;2.60;;
9106;SDS011;4589;48.690;8.952;2023-05-07T13:03:04;5.60;;;2.50;;
9106;SDS011;4589;48.690;8.952;2023-05-07T13:05:31;3.87;;;2.50;;
9106;SDS011;4589;48.690;8.952;2023-05-07T13:07:57;2.83;;;2.57;;
9106;SDS011;4589;48.690;8.952;2023-05-07T13:10:23;4.83;;;2.40;;
9106;SDS011;4589;48.690;8.952;2023-05-07T13:12:50;4.20;;;2.40;;
9106;SDS011;4589;48.690;8.952;2023-05-07T13:15:17;2.40;;;2.07;;
9106;SDS011;4589;48.690;8.952;2023-05-07T13:17:43;3.20;;;2.30;;
9106;SDS011;4589;48.690;8.952;2023-05-07T13:20:09;3.43;;;3.13;;
9106;SDS011;4589;48.690;8.952;2023-05-07T13:22:35;4.00;;;2.40;;
9106;SDS011;4589;48.690;8.952;2023-05-07T13:25:01;1.93;;;1.83;;
9106;SDS011;4589;48.690;8.952;2023-05-07T13:27:27;2.83;;;2.53;;
9106;SDS011;4589;48.690;8.952;2023-05-07T13:29:55;2.80;;;2.60;;
9106;SDS011;4589;48.690;8.952;2023-05-07T13:32:21;2.90;;;2.70;;
9106;SDS011;4589;48.690;8.952;2023-05-07T13:34:47;4.20;;;3.07;;
9106;SDS011;4589;48.690;8.952;2023-05-07T13:37:13;3.40;;;3.10;;
9106;SDS011;4589;48.690;8.952;2023-05-07T13:39:39;5.03;;;3.00;;
9106;SDS011;4589;48.690;8.952;2023-05-07T13:42:06;6.47;;;3.00;;
9106;SDS011;4589;48.690;8.952;2023-05-07T13:44:32;3.53;;;3.23;;
9106;SDS011;4589;48.690;8.952;2023-05-07T13:46:58;4.20;;;3.30;;
9106;SDS011;4589;48.690;8.952;2023-05-07T13:49:24;3.20;;;2.90;;
9106;SDS011;4589;48.690;8.952;2023-05-07T13:51:50;4.33;;;3.10;;
9106;SDS011;4589;48.690;8.952;2023-05-07T13:54:16;4.33;;;3.57;;
9106;SDS011;4589;48.690;8.952;2023-05-07T13:56:42;3.80;;;3.40;;
9106;SDS011;4589;48.690;8.952;2023-05-07T13:59:08;8.10;;;4.83;;
9106;SDS011;4589;48.690;8.952;2023-05-07T14:01:34;7.30;;;4.57;;
9106;SDS011;4589;48.690;8.952;2023-05-07T14:03:59;4.37;;;3.57;;
9106;SDS011;4589;48.690;8.952;2023-05-07T14:06:25;7.93;;;5.03;;
9106;SDS011;4589;48.690;8.952;2023-05-07T14:08:51;6.60;;;6.00;;
9106;SDS011;4589;48.690;8.952;2023-05-07T14:11:17;5.83;;;4.73;;
9106;SDS011;4589;48.690;8.952;2023-05-07T14:13:43;6.90;;;4.77;;
9106;SDS011;4589;48.690;8.952;2023-05-07T14:16:09;5.20;;;4.50;;
9106;SDS011;4589;48.690;8.952;2023-05-07T14:18:35;20.97;;;4.53;;
9106;SDS011;4589;48.690;8.952;2023-05-07T14:21:04;5.10;;;4.30;;
9106;SDS011;4589;48.690;8.952;2023-05-07T14:23:31;4.50;;;4.10;;
9106;SDS011;4589;48.690;8.952;2023-05-07T14:25:57;4.63;;;4.23;;
9106;SDS011;4589;48.690;8.952;2023-05-07T14:28:23;6.50;;;5.80;;
9106;SDS011;4589;48.690;8.952;2023-05-07T14:30:49;6.10;;;4.73;;
9106;SDS011;4589;48.690;8.952;2023-05-07T14:33:15;5.47;;;4.80;;
9106;SDS011;4589;48.690;8.952;2023-05-07T14:35:41;16.47;;;14.77;;
9106;SDS011;4589;48.690;8.952;2023-05-07T14:38:12;30.93;;;23.73;;
9106;SDS011;4589;48.690;8.952;2023-05-07T14:40:38;8.70;;;7.03;;
9106;SDS011;4589;48.690;8.952;2023-05-07T14:43:04;6.80;;;5.50;;
9106;SDS011;4589;48.690;8.952;2023-05-07T14:45:30;6.37;;;5.20;;
9106;SDS011;4589;48.690;8.952;2023-05-07T14:47:56;5.83;;;5.27;;
9106;SDS011;4589;48.690;8.952;2023-05-07T14:50:22;7.07;;;4.73;;
9106;SDS011;4589;48.690;8.952;2023-05-07T14:52:47;6.17;;;4.67;;
9106;SDS011;4589;48.690;8.952;2023-05-07T14:55:14;7.20;;;4.60;;
9106;SDS011;4589;48.690;8.952;2023-05-07T14:57:40;4.60;;;4.13;;
9106;SDS011;4589;48.690;8.952;2023-05-07T15:00:06;7.40;;;5.60;;
9106;SDS011;4589;48.690;8.952;2023-05-07T15:02:33;5.73;;;5.13;;
9106;SDS011;4589;48.690;8.952;2023-05-07T15:04:59;5.13;;;4.03;;
9106;SDS011;4589;48.690;8.952;2023-05-07T15:07:26;4.87;;;4.37;;
9106;SDS011;4589;48.690;8.952;2023-05-07T15:09:52;6.30;;;5.10;;
9106;SDS011;4589;48.690;8.952;2023-05-07T15:12:18;10.10;;;5.27;;
9106;SDS011;4589;48.690;8.952;2023-05-07T15:14:44;7.33;;;5.00;;
9106;SDS011;4589;48.690;8.952;2023-05-07T15:17:10;9.20;;;4.97;;
9106;SDS011;4589;48.690;8.952;2023-05-07T15:19:36;5.43;;;4.00;;
9106;SDS011;4589;48.690;8.952;2023-05-07T15:22:02;3.97;;;3.60;;
9106;SDS011;4589;48.690;8.952;2023-05-07T15:24:28;4.70;;;4.30;;